Time;durP1;ratioP1;P1;durP2;ratioP2;P2;SDS_P1;SDS_P2;PMS_P1;PMS_P2;Temp;Humidity;BMP_temperature;BMP_pressure;BME280_temperature;BME280_humidity;BME280_pressure;Samples;Min_cycle;Max_cycle;Signal;HPM_P1;HPM_P2
2023/03/26 00:00:42;;;;;;;;;;;20.80;55.20;;;;;;5052907;28;19912;-76
2023/03/26 00:03:11;;;;;;;;;;;20.80;55.30;;;;;;5052608;28;19917;-75
2023/03/26 00:05:38;;;;;;;;;;;20.60;55.20;;;;;;5052679;28;19919;-76
2023/03/26 00:08:04;;;;;;;;;;;20.70;55.30;;;;;;5052561;28;19928;-76
2023/03/26 00:10:30;;;;;;;;;;;20.60;55.30;;;;;;5000964;28;20003;-76
2023/03/26 00:12:56;;;;;;;;;;;20.60;55.30;;;;;;5052582;28;20444;-77
2023/03/26 00:15:22;;;;;;;;;;;20.60;55.50;;;;;;5052332;28;20281;-76
2023/03/26 00:17:48;;;;;;;;;;;20.60;55.50;;;;;;5052648;28;19908;-76
2023/03/26 00:20:14;;;;;;;;;;;20.60;55.50;;;;;;5052440;28;19908;-76
2023/03/26 00:22:40;;;;;;;;;;;20.70;55.60;;;;;;5034401;28;19943;-76
2023/03/26 00:25:06;;;;;;;;;;;20.60;55.50;;;;;;5052187;28;19917;-76
2023/03/26 00:27:32;;;;;;;;;;;20.60;55.50;;;;;;5000778;28;19967;-76
2023/03/26 00:30:00;;;;;;;;;;;20.70;55.60;;;;;;5052368;28;19908;-76
2023/03/26 00:32:29;;;;;;;;;;;20.60;55.50;;;;;;5034603;28;19935;-76
2023/03/26 00:34:55;;;;;;;;;;;20.70;55.60;;;;;;5051532;28;20280;-76
2023/03/26 00:37:25;;;;;;;;;;;20.80;55.50;;;;;;5033992;28;20279;-76
2023/03/26 00:39:58;;;;;;;;;;;20.70;55.50;;;;;;5052088;28;19974;-76
2023/03/26 00:42:25;;;;;;;;;;;20.70;55.50;;;;;;5034257;28;19920;-76
2023/03/26 00:44:56;;;;;;;;;;;20.70;55.50;;;;;;5051899;28;19961;-76
2023/03/26 00:47:23;;;;;;;;;;;20.70;55.40;;;;;;5051882;28;19915;-76
2023/03/26 00:49:49;;;;;;;;;;;20.60;55.30;;;;;;5051930;28;19915;-76
2023/03/26 00:52:17;;;;;;;;;;;20.80;55.30;;;;;;5051789;28;19919;-76
2023/03/26 00:54:44;;;;;;;;;;;20.70;55.40;;;;;;5051715;28;20321;-76
2023/03/26 00:57:11;;;;;;;;;;;20.70;55.40;;;;;;5051968;28;20006;-77
2023/03/26 00:59:41;;;;;;;;;;;20.60;55.30;;;;;;5051855;28;19912;-76
2023/03/26 01:02:09;;;;;;;;;;;20.60;55.40;;;;;;5051413;28;20277;-76
2023/03/26 01:04:36;;;;;;;;;;;20.60;55.40;;;;;;5051574;28;19962;-77
2023/03/26 01:07:15;;;;;;;;;;;20.60;55.50;;;;;;5051495;28;19908;-76
2023/03/26 01:09:44;;;;;;;;;;;20.50;55.60;;;;;;5051728;28;19913;-76
2023/03/26 01:12:14;;;;;;;;;;;20.60;55.60;;;;;;5053495;28;20019;-76
2023/03/26 01:14:40;;;;;;;;;;;20.60;55.60;;;;;;5051363;28;20001;-76
2023/03/26 01:17:06;;;;;;;;;;;20.50;55.60;;;;;;5051471;28;20345;-76
2023/03/26 01:19:51;;;;;;;;;;;20.50;55.70;;;;;;5051212;28;19919;-77
2023/03/26 01:22:19;;;;;;;;;;;20.40;55.60;;;;;;5051189;28;19943;-76
2023/03/26 01:24:51;;;;;;;;;;;20.50;55.80;;;;;;5033555;28;19913;-76
2023/03/26 01:27:32;;;;;;;;;;;20.60;55.90;;;;;;5051334;28;19916;-76
2023/03/26 01:30:03;;;;;;;;;;;20.50;55.90;;;;;;5033464;28;20003;-76
2023/03/26 01:32:42;;;;;;;;;;;20.50;55.90;;;;;;5016937;28;19920;-76
2023/03/26 01:35:18;;;;;;;;;;;20.50;55.90;;;;;;5033494;28;20007;-76
2023/03/26 01:37:45;;;;;;;;;;;20.50;55.90;;;;;;5051302;28;19981;-76
2023/03/26 01:40:24;;;;;;;;;;;20.50;56.00;;;;;;5051296;28;19915;-76
2023/03/26 01:42:55;;;;;;;;;;;20.50;55.90;;;;;;5051422;28;19963;-76
2023/03/26 01:45:24;;;;;;;;;;;20.50;55.90;;;;;;5051240;28;19935;-77
2023/03/26 01:47:51;;;;;;;;;;;20.60;55.90;;;;;;5054118;28;20361;-76
2023/03/26 01:50:17;;;;;;;;;;;20.50;55.80;;;;;;5020054;28;20364;-76
2023/03/26 01:52:43;;;;;;;;;;;20.60;55.80;;;;;;5055287;28;19955;-76
2023/03/26 01:55:10;;;;;;;;;;;20.50;55.90;;;;;;5054965;28;19951;-76
2023/03/26 01:57:39;;;;;;;;;;;20.40;55.80;;;;;;5037363;28;20007;-76
2023/03/26 02:00:37;;;;;;;;;;;20.40;55.70;;;;;;5054975;28;20353;-76
2023/03/26 02:03:04;;;;;;;;;;;20.50;55.80;;;;;;4954459;29;19941;-76
2023/03/26 02:05:30;;;;;;;;;;;20.60;55.90;;;;;;4954306;29;20453;-76
2023/03/26 02:07:57;;;;;;;;;;;20.50;55.90;;;;;;4954461;29;20002;-76
2023/03/26 02:10:28;;;;;;;;;;;20.50;55.90;;;;;;4954488;29;19954;-76
2023/03/26 02:12:54;;;;;;;;;;;20.50;55.90;;;;;;4975463;28;19923;-77
2023/03/26 02:15:21;;;;;;;;;;;20.50;56.10;;;;;;4993137;28;20385;-76
2023/03/26 02:17:48;;;;;;;;;;;20.40;55.90;;;;;;4992879;28;19949;-75
2023/03/26 02:20:15;;;;;;;;;;;20.30;56.00;;;;;;4993007;28;19910;-76
2023/03/26 02:22:44;;;;;;;;;;;20.30;56.00;;;;;;4992865;28;19918;-76
2023/03/26 02:25:13;;;;;;;;;;;20.40;56.10;;;;;;4992620;28;19914;-76
2023/03/26 02:27:39;;;;;;;;;;;20.40;56.10;;;;;;4992770;28;20282;-76
2023/03/26 02:30:12;;;;;;;;;;;20.40;56.10;;;;;;4976874;28;19920;-76
2023/03/26 02:32:37;;;;;;;;;;;20.30;56.10;;;;;;4992741;28;19933;-77
2023/03/26 02:35:05;;;;;;;;;;;20.30;56.30;;;;;;4976461;28;19913;-76
2023/03/26 02:37:34;;;;;;;;;;;20.20;56.30;;;;;;4979278;28;19913;-76
2023/03/26 02:40:10;;;;;;;;;;;20.30;56.40;;;;;;5073192;28;19908;-76
2023/03/26 02:42:38;;;;;;;;;;;20.30;56.40;;;;;;5072969;28;19916;-76
2023/03/26 02:45:05;;;;;;;;;;;20.20;56.30;;;;;;5072805;28;20348;-75
2023/03/26 02:47:59;;;;;;;;;;;20.30;56.40;;;;;;5074172;28;19908;-76
2023/03/26 02:50:44;;;;;;;;;;;20.30;56.40;;;;;;5074358;28;19909;-76
2023/03/26 02:53:33;;;;;;;;;;;20.30;56.40;;;;;;5073773;28;19943;-76
2023/03/26 02:56:19;;;;;;;;;;;20.30;56.40;;;;;;5073767;28;19912;-76
2023/03/26 02:59:11;;;;;;;;;;;20.30;56.40;;;;;;5071732;28;19915;-77
2023/03/26 03:01:41;;;;;;;;;;;20.20;56.20;;;;;;5072933;28;19931;-76
2023/03/26 03:04:09;;;;;;;;;;;20.30;56.30;;;;;;5073124;28;20333;-76
2023/03/26 03:06:37;;;;;;;;;;;20.20;56.20;;;;;;5072450;28;20367;-76
2023/03/26 03:09:04;;;;;;;;;;;20.30;56.20;;;;;;5072565;28;20336;-76
2023/03/26 03:11:53;;;;;;;;;;;20.30;56.30;;;;;;5051048;28;20016;-76
2023/03/26 03:14:19;;;;;;;;;;;20.30;56.30;;;;;;5034352;28;19999;-76
2023/03/26 03:16:45;;;;;;;;;;;20.20;56.30;;;;;;5011230;28;19963;-76
2023/03/26 03:19:12;;;;;;;;;;;20.20;56.30;;;;;;4995127;28;20302;-76
2023/03/26 03:21:39;;;;;;;;;;;20.20;56.40;;;;;;5011414;28;19968;-76
2023/03/26 03:24:07;;;;;;;;;;;20.20;56.40;;;;;;5011343;28;19914;-76
2023/03/26 03:26:41;;;;;;;;;;;20.20;56.40;;;;;;5011266;28;19909;-76
2023/03/26 03:29:29;;;;;;;;;;;20.20;56.40;;;;;;5009052;28;19913;-76
2023/03/26 03:32:00;;;;;;;;;;;20.10;56.40;;;;;;4995341;28;19909;-76
2023/03/26 03:34:37;;;;;;;;;;;20.10;56.40;;;;;;5011092;28;19909;-76
2023/03/26 03:37:04;;;;;;;;;;;20.10;56.40;;;;;;4994822;28;19910;-76
2023/03/26 03:39:38;;;;;;;;;;;20.00;56.40;;;;;;4994656;28;20318;-76
2023/03/26 03:42:05;;;;;;;;;;;20.10;56.50;;;;;;4994505;28;19929;-76
2023/03/26 03:44:31;;;;;;;;;;;20.00;56.40;;;;;;4994776;28;20385;-76
2023/03/26 03:46:58;;;;;;;;;;;20.10;56.50;;;;;;4994176;28;19949;-76
2023/03/26 03:49:24;;;;;;;;;;;20.10;56.50;;;;;;5028119;28;19966;-76
2023/03/26 03:51:50;;;;;;;;;;;20.10;56.50;;;;;;5050683;28;19908;-77
2023/03/26 03:54:31;;;;;;;;;;;20.20;56.40;;;;;;5033938;28;19912;-76
2023/03/26 03:57:22;;;;;;;;;;;20.10;56.40;;;;;;5050218;28;19919;-76
2023/03/26 03:59:57;;;;;;;;;;;20.30;56.50;;;;;;5033846;28;20008;-76
2023/03/26 04:02:29;;;;;;;;;;;20.30;56.40;;;;;;5034251;28;19960;-76
2023/03/26 04:04:58;;;;;;;;;;;20.30;56.40;;;;;;5033564;28;19909;-76
2023/03/26 04:07:26;;;;;;;;;;;20.30;56.40;;;;;;5033313;28;19955;-76
2023/03/26 04:10:14;;;;;;;;;;;20.20;56.20;;;;;;4990671;28;19910;-76
2023/03/26 04:12:58;;;;;;;;;;;20.20;56.20;;;;;;4990527;28;19932;-76
2023/03/26 04:15:44;;;;;;;;;;;20.30;56.20;;;;;;4989280;28;19910;-76
2023/03/26 04:18:10;;;;;;;;;;;20.30;56.10;;;;;;5002573;28;19916;-76
2023/03/26 04:20:39;;;;;;;;;;;20.20;56.10;;;;;;4993924;28;19987;-76
2023/03/26 04:23:07;;;;;;;;;;;20.20;56.10;;;;;;4993997;28;19921;-76
2023/03/26 04:25:35;;;;;;;;;;;20.10;56.20;;;;;;5010398;28;19914;-76
2023/03/26 04:28:26;;;;;;;;;;;20.20;56.20;;;;;;5010084;28;19920;-76
2023/03/26 04:31:05;;;;;;;;;;;20.20;56.20;;;;;;4993833;28;19913;-76
2023/03/26 04:33:38;;;;;;;;;;;20.20;56.30;;;;;;4970957;28;19909;-76
2023/03/26 04:36:05;;;;;;;;;;;20.10;56.20;;;;;;4954566;28;19917;-76
2023/03/26 04:38:38;;;;;;;;;;;20.00;56.30;;;;;;4970827;28;20337;-76
2023/03/26 04:41:06;;;;;;;;;;;20.10;56.40;;;;;;4954624;28;20000;-76
2023/03/26 04:44:00;;;;;;;;;;;20.10;56.50;;;;;;4913549;29;20029;-76
2023/03/26 04:46:33;;;;;;;;;;;20.10;56.50;;;;;;4920055;29;20709;-76
2023/03/26 04:49:11;;;;;;;;;;;20.10;56.50;;;;;;4951978;28;19910;-76
2023/03/26 04:51:40;;;;;;;;;;;20.00;56.40;;;;;;4951909;28;20010;-76
2023/03/26 04:54:16;;;;;;;;;;;20.10;56.70;;;;;;4951457;29;19918;-76
2023/03/26 04:56:55;;;;;;;;;;;19.90;56.60;;;;;;4951191;29;19964;-76
2023/03/26 04:59:35;;;;;;;;;;;20.00;56.60;;;;;;4951310;29;20013;-76
2023/03/26 05:02:05;;;;;;;;;;;20.00;56.50;;;;;;4951290;29;19922;-76
2023/03/26 05:04:42;;;;;;;;;;;20.10;56.60;;;;;;4974910;28;19940;-76
2023/03/26 05:07:09;;;;;;;;;;;20.10;56.50;;;;;;4993177;28;19909;-76
2023/03/26 05:09:43;;;;;;;;;;;20.20;56.50;;;;;;4993027;28;19956;-76
2023/03/26 05:12:15;;;;;;;;;;;20.10;56.50;;;;;;4993073;28;20325;-76
2023/03/26 05:15:02;;;;;;;;;;;20.00;56.30;;;;;;4992890;28;19909;-76
2023/03/26 05:17:51;;;;;;;;;;;20.20;56.30;;;;;;4989896;28;20389;-77
2023/03/26 05:20:28;;;;;;;;;;;20.20;56.20;;;;;;4999872;28;19955;-76
2023/03/26 05:22:55;;;;;;;;;;;20.30;56.30;;;;;;5028630;28;20285;-76
2023/03/26 05:25:29;;;;;;;;;;;20.40;56.10;;;;;;5012381;28;19917;-76
2023/03/26 05:27:56;;;;;;;;;;;20.30;56.10;;;;;;5012739;28;19917;-76
2023/03/26 05:30:26;;;;;;;;;;;20.20;55.90;;;;;;5012802;28;19909;-76
2023/03/26 05:32:56;;;;;;;;;;;20.20;55.90;;;;;;5012600;28;19916;-76
2023/03/26 05:35:27;;;;;;;;;;;20.20;55.70;;;;;;5012404;28;19909;-76
2023/03/26 05:37:54;;;;;;;;;;;20.40;55.80;;;;;;5012548;28;19932;-76
2023/03/26 05:40:22;;;;;;;;;;;20.40;55.50;;;;;;5012501;28;19909;-76
2023/03/26 05:42:55;;;;;;;;;;;20.40;55.30;;;;;;5012428;28;19921;-77
2023/03/26 05:45:41;;;;;;;;;;;20.40;54.50;;;;;;4969854;28;19921;-76
2023/03/26 05:48:21;;;;;;;;;;;20.40;55.20;;;;;;4970130;28;19918;-76
2023/03/26 05:50:51;;;;;;;;;;;20.40;54.80;;;;;;4970136;28;20340;-76
2023/03/26 05:53:18;;;;;;;;;;;20.60;54.90;;;;;;4954563;28;20366;-76
2023/03/26 05:56:03;;;;;;;;;;;20.40;54.00;;;;;;5008600;28;19952;-76
2023/03/26 05:58:52;;;;;;;;;;;20.40;54.70;;;;;;5008993;28;19910;-76
2023/03/26 06:01:37;;;;;;;;;;;20.30;54.70;;;;;;5009060;28;19913;-77
2023/03/26 06:04:15;;;;;;;;;;;20.40;54.20;;;;;;5009092;28;19921;-75
2023/03/26 06:06:51;;;;;;;;;;;20.30;54.90;;;;;;4977523;28;20407;-76
2023/03/26 06:09:17;;;;;;;;;;;20.40;55.40;;;;;;5008845;28;19913;-76
2023/03/26 06:11:44;;;;;;;;;;;20.50;55.30;;;;;;4992610;28;19914;-76
2023/03/26 06:14:10;;;;;;;;;;;20.40;55.00;;;;;;4992755;28;20262;-76
2023/03/26 06:16:40;;;;;;;;;;;20.50;55.00;;;;;;4976308;28;19921;-76
2023/03/26 06:19:20;;;;;;;;;;;20.50;54.90;;;;;;5009012;28;19909;-76
2023/03/26 06:21:54;;;;;;;;;;;20.50;55.00;;;;;;5000594;28;20023;-76
2023/03/26 06:24:40;;;;;;;;;;;20.40;55.00;;;;;;5028496;28;19913;-76
2023/03/26 06:27:24;;;;;;;;;;;20.50;55.20;;;;;;5028304;28;19956;-76
2023/03/26 06:30:10;;;;;;;;;;;20.50;55.20;;;;;;5001391;28;19913;-76
2023/03/26 06:32:55;;;;;;;;;;;20.40;55.10;;;;;;5028389;28;19956;-76
2023/03/26 06:35:24;;;;;;;;;;;20.40;55.20;;;;;;5015415;28;19917;-76
2023/03/26 06:37:50;;;;;;;;;;;20.60;55.30;;;;;;5031845;28;19924;-76
2023/03/26 06:40:16;;;;;;;;;;;20.40;55.30;;;;;;5015592;28;19909;-76
2023/03/26 06:43:14;;;;;;;;;;;20.40;55.20;;;;;;4973004;28;20012;-76
2023/03/26 06:46:09;;;;;;;;;;;20.50;55.20;;;;;;4934371;29;20056;-76
2023/03/26 06:48:55;;;;;;;;;;;20.50;55.20;;;;;;4915557;29;19926;-76
2023/03/26 06:51:50;;;;;;;;;;;20.60;55.20;;;;;;4915453;29;19934;-75
2023/03/26 06:54:34;;;;;;;;;;;20.60;55.00;;;;;;4915412;29;19915;-76
2023/03/26 06:57:08;;;;;;;;;;;20.80;54.80;;;;;;4915287;29;19919;-76
2023/03/26 07:00:04;;;;;;;;;;;20.80;54.80;;;;;;4915389;29;20111;-76
2023/03/26 07:02:49;;;;;;;;;;;20.90;54.70;;;;;;4950233;29;19918;-76
2023/03/26 07:05:33;;;;;;;;;;;20.80;54.60;;;;;;4953523;29;20017;-76
2023/03/26 07:08:19;;;;;;;;;;;20.90;54.70;;;;;;4934160;29;19911;-77
2023/03/26 07:11:04;;;;;;;;;;;20.80;54.50;;;;;;4933925;29;19911;-76
2023/03/26 07:13:58;;;;;;;;;;;20.90;54.60;;;;;;4917910;29;19930;-76
2023/03/26 07:16:39;;;;;;;;;;;20.90;54.60;;;;;;4933871;29;19911;-76
2023/03/26 07:19:25;;;;;;;;;;;21.00;54.50;;;;;;4961334;28;20013;-76
2023/03/26 07:21:51;;;;;;;;;;;20.90;54.40;;;;;;4955480;28;19910;-76
2023/03/26 07:24:36;;;;;;;;;;;20.90;54.30;;;;;;4953005;29;19910;-76
2023/03/26 07:27:07;;;;;;;;;;;21.00;54.30;;;;;;4954803;28;19917;-76
2023/03/26 07:30:00;;;;;;;;;;;20.90;54.30;;;;;;4955967;28;19910;-76
2023/03/26 07:32:42;;;;;;;;;;;20.90;54.30;;;;;;4933769;29;20351;-76
2023/03/26 07:35:43;;;;;;;;;;;21.00;54.10;;;;;;4917867;29;19911;-76
2023/03/26 07:38:41;;;;;;;;;;;21.10;54.10;;;;;;4895774;29;20367;-77
2023/03/26 07:41:30;;;;;;;;;;;21.10;54.10;;;;;;4895833;29;19912;-76
2023/03/26 07:44:24;;;;;;;;;;;21.00;53.90;;;;;;4895457;29;19919;-76
2023/03/26 07:47:24;;;;;;;;;;;21.00;53.90;;;;;;4914417;29;19919;-76
2023/03/26 07:50:13;;;;;;;;;;;20.90;53.90;;;;;;4914445;29;19958;-76
2023/03/26 07:53:08;;;;;;;;;;;20.90;53.90;;;;;;4895578;29;20075;-76
2023/03/26 07:56:15;;;;;;;;;;;21.00;53.80;;;;;;4895380;29;19930;-76
2023/03/26 07:59:10;;;;;;;;;;;21.00;53.90;;;;;;4895361;29;20029;-76
2023/03/26 08:02:04;;;;;;;;;;;21.00;53.90;;;;;;4879687;29;20029;-76
2023/03/26 08:04:50;;;;;;;;;;;21.00;54.00;;;;;;4895211;29;19962;-76
2023/03/26 08:07:32;;;;;;;;;;;20.90;53.90;;;;;;4895552;29;19951;-76
2023/03/26 08:10:23;;;;;;;;;;;21.00;53.80;;;;;;4914652;29;19911;-76
2023/03/26 08:13:03;;;;;;;;;;;21.00;53.60;;;;;;4952073;29;20376;-76
2023/03/26 08:15:36;;;;;;;;;;;21.00;53.60;;;;;;4964925;28;19965;-76
2023/03/26 08:18:06;;;;;;;;;;;21.00;53.60;;;;;;4971326;28;20031;-76
2023/03/26 08:20:46;;;;;;;;;;;21.10;53.50;;;;;;4971356;28;19957;-76
2023/03/26 08:23:12;;;;;;;;;;;21.10;53.30;;;;;;4976174;28;19922;-76
2023/03/26 08:25:41;;;;;;;;;;;21.20;53.00;;;;;;4993962;28;19909;-76
2023/03/26 08:28:25;;;;;;;;;;;21.20;53.00;;;;;;5010170;28;19910;-76
2023/03/26 08:30:53;;;;;;;;;;;21.20;53.10;;;;;;5058987;28;20377;-76
2023/03/26 08:33:20;;;;;;;;;;;21.30;53.10;;;;;;5072443;28;19912;-77
2023/03/26 08:35:46;;;;;;;;;;;21.40;52.90;;;;;;5072075;28;19931;-76
2023/03/26 08:38:16;;;;;;;;;;;21.40;53.00;;;;;;5070721;28;19912;-76
2023/03/26 08:41:00;;;;;;;;;;;21.30;52.80;;;;;;5071938;28;19955;-76
2023/03/26 08:43:29;;;;;;;;;;;21.30;52.90;;;;;;5071939;28;19920;-76
2023/03/26 08:46:04;;;;;;;;;;;21.40;52.90;;;;;;5072040;28;19999;-76
2023/03/26 08:48:43;;;;;;;;;;;21.40;52.80;;;;;;5070699;28;19912;-77
2023/03/26 08:51:11;;;;;;;;;;;21.30;52.60;;;;;;5072220;28;19909;-76
2023/03/26 08:53:50;;;;;;;;;;;21.40;52.80;;;;;;5049199;28;19909;-76
2023/03/26 08:56:23;;;;;;;;;;;21.30;52.70;;;;;;5048917;28;19908;-76
2023/03/26 08:59:13;;;;;;;;;;;21.40;52.70;;;;;;5032494;28;20000;-76
2023/03/26 09:01:47;;;;;;;;;;;21.40;52.60;;;;;;5049127;28;19912;-76
2023/03/26 09:04:32;;;;;;;;;;;21.30;51.70;;;;;;5032451;28;20304;-76
2023/03/26 09:07:16;;;;;;;;;;;21.30;52.80;;;;;;5049135;28;19909;-76
2023/03/26 09:09:44;;;;;;;;;;;21.20;52.70;;;;;;5032544;28;20373;-76
2023/03/26 09:12:29;;;;;;;;;;;21.40;52.90;;;;;;5048989;28;19927;-76
2023/03/26 09:15:07;;;;;;;;;;;21.40;52.70;;;;;;5049187;28;19913;-76
2023/03/26 09:17:45;;;;;;;;;;;21.30;52.80;;;;;;5049033;28;19962;-75
2023/03/26 09:20:13;;;;;;;;;;;21.30;52.80;;;;;;5032513;28;19908;-76
2023/03/26 09:22:57;;;;;;;;;;;21.40;52.60;;;;;;5048857;28;20020;-76
2023/03/26 09:25:41;;;;;;;;;;;21.40;52.30;;;;;;5067306;28;19916;-76
2023/03/26 09:28:26;;;;;;;;;;;21.40;53.00;;;;;;5071389;28;19916;-76
2023/03/26 09:30:52;;;;;;;;;;;21.40;52.80;;;;;;5048659;28;20389;-75
2023/03/26 09:33:17;;;;;;;;;;;21.30;52.90;;;;;;5048894;28;20042;-76
2023/03/26 09:36:02;;;;;;;;;;;21.30;52.90;;;;;;5048821;28;19966;-76
2023/03/26 09:38:28;;;;;;;;;;;21.40;52.70;;;;;;5048955;28;20336;-76
2023/03/26 09:41:12;;;;;;;;;;;21.50;52.60;;;;;;5048760;28;19912;-76
2023/03/26 09:43:57;;;;;;;;;;;21.50;52.70;;;;;;5048929;28;19920;-76
2023/03/26 09:46:25;;;;;;;;;;;21.40;52.70;;;;;;5032199;28;19940;-76
2023/03/26 09:48:54;;;;;;;;;;;21.40;51.70;;;;;;5048825;28;19908;-76
2023/03/26 09:51:20;;;;;;;;;;;21.40;51.60;;;;;;5032113;28;19923;-76
2023/03/26 09:54:05;;;;;;;;;;;21.40;52.70;;;;;;5032219;28;19912;-76
2023/03/26 09:56:40;;;;;;;;;;;21.30;52.80;;;;;;5032105;28;19915;-76
2023/03/26 09:59:08;;;;;;;;;;;21.30;52.50;;;;;;5048650;28;20411;-76
2023/03/26 10:01:40;;;;;;;;;;;21.20;52.60;;;;;;5043920;28;20317;-76
2023/03/26 10:04:22;;;;;;;;;;;21.30;52.70;;;;;;5071089;28;19920;-76
2023/03/26 10:07:00;;;;;;;;;;;21.30;52.20;;;;;;5071301;28;19912;-76
2023/03/26 10:09:36;;;;;;;;;;;21.30;53.10;;;;;;5074907;28;19989;-76
2023/03/26 10:12:11;;;;;;;;;;;21.30;52.90;;;;;;5056915;28;19931;-76
2023/03/26 10:14:37;;;;;;;;;;;21.20;53.00;;;;;;5073697;28;20318;-76
2023/03/26 10:17:24;;;;;;;;;;;21.30;53.10;;;;;;5073494;28;19913;-76
2023/03/26 10:19:50;;;;;;;;;;;21.20;52.60;;;;;;5074867;28;19909;-76
2023/03/26 10:22:22;;;;;;;;;;;21.30;53.00;;;;;;5073506;28;19924;-76
2023/03/26 10:25:00;;;;;;;;;;;21.20;52.80;;;;;;5074673;28;19912;-76
2023/03/26 10:27:32;;;;;;;;;;;21.20;52.80;;;;;;5074449;28;19928;-76
2023/03/26 10:30:16;;;;;;;;;;;21.40;52.80;;;;;;5074361;28;20354;-77
2023/03/26 10:32:50;;;;;;;;;;;21.30;52.80;;;;;;5074553;28;20372;-76
2023/03/26 10:35:29;;;;;;;;;;;21.40;52.60;;;;;;5074404;28;20003;-76
2023/03/26 10:38:21;;;;;;;;;;;21.30;52.80;;;;;;5074294;28;19909;-76
2023/03/26 10:40:57;;;;;;;;;;;21.40;52.80;;;;;;4992513;28;19940;-76
2023/03/26 10:43:26;;;;;;;;;;;21.50;52.80;;;;;;4992437;28;19922;-76
2023/03/26 10:45:55;;;;;;;;;;;21.40;52.70;;;;;;4972886;28;19997;-76
2023/03/26 10:48:34;;;;;;;;;;;21.40;51.90;;;;;;4972914;28;19914;-76
2023/03/26 10:51:05;;;;;;;;;;;21.50;52.70;;;;;;4972960;28;20000;-76
2023/03/26 10:53:39;;;;;;;;;;;21.40;52.60;;;;;;4972996;28;20321;-76
2023/03/26 10:56:12;;;;;;;;;;;21.50;52.70;;;;;;4957015;28;20301;-76
2023/03/26 10:58:39;;;;;;;;;;;21.50;52.60;;;;;;4972761;28;19920;-76
2023/03/26 11:01:20;;;;;;;;;;;21.40;52.60;;;;;;4972900;28;20426;-76
2023/03/26 11:03:51;;;;;;;;;;;21.50;52.70;;;;;;4972633;28;20305;-76
2023/03/26 11:06:24;;;;;;;;;;;21.40;52.70;;;;;;4972953;28;20730;-76
2023/03/26 11:08:57;;;;;;;;;;;21.40;52.60;;;;;;4972615;28;20423;-76
2023/03/26 11:11:26;;;;;;;;;;;21.30;52.70;;;;;;4972609;28;20381;-76
2023/03/26 11:14:01;;;;;;;;;;;21.30;52.70;;;;;;4972579;28;19930;-76
2023/03/26 11:16:30;;;;;;;;;;;21.30;52.70;;;;;;4981305;28;19925;-77
2023/03/26 11:19:10;;;;;;;;;;;21.30;52.80;;;;;;5071688;28;19919;-76
2023/03/26 11:21:42;;;;;;;;;;;21.30;52.80;;;;;;5072325;28;19909;-76
2023/03/26 11:24:31;;;;;;;;;;;21.30;52.80;;;;;;5055576;28;19927;-76
2023/03/26 11:27:04;;;;;;;;;;;21.20;52.90;;;;;;4991599;28;19964;-76
2023/03/26 11:29:50;;;;;;;;;;;21.40;53.00;;;;;;4991609;28;20092;-76
2023/03/26 11:32:20;;;;;;;;;;;21.30;53.00;;;;;;4991556;28;19918;-76
2023/03/26 11:34:52;;;;;;;;;;;21.40;52.90;;;;;;4991677;28;20010;-76
2023/03/26 11:37:39;;;;;;;;;;;21.50;52.90;;;;;;4991580;28;19916;-76
2023/03/26 11:40:10;;;;;;;;;;;21.40;52.80;;;;;;4933765;29;19918;-76
2023/03/26 11:42:36;;;;;;;;;;;21.30;52.80;;;;;;4933609;29;19922;-76
2023/03/26 11:45:05;;;;;;;;;;;21.40;52.80;;;;;;4914674;29;19982;-76
2023/03/26 11:47:40;;;;;;;;;;;21.40;52.80;;;;;;4898831;29;20022;-76
2023/03/26 11:50:09;;;;;;;;;;;21.50;52.80;;;;;;4914559;29;19970;-76
2023/03/26 11:52:35;;;;;;;;;;;21.40;52.80;;;;;;4914379;29;20415;-76
2023/03/26 11:55:02;;;;;;;;;;;21.50;52.10;;;;;;4914622;29;19970;-76
2023/03/26 11:57:29;;;;;;;;;;;21.50;52.70;;;;;;4898564;29;19946;-76
2023/03/26 12:00:02;;;;;;;;;;;21.40;52.60;;;;;;4914156;29;20499;-76
2023/03/26 12:02:39;;;;;;;;;;;21.40;52.70;;;;;;4914090;29;19995;-75
2023/03/26 12:05:14;;;;;;;;;;;21.40;52.60;;;;;;4969698;28;19917;-76
2023/03/26 12:07:49;;;;;;;;;;;21.40;52.70;;;;;;4971749;28;19921;-76
2023/03/26 12:10:21;;;;;;;;;;;21.40;52.70;;;;;;4971474;28;19945;-75
2023/03/26 12:12:47;;;;;;;;;;;21.40;52.70;;;;;;4971350;28;19925;-76
2023/03/26 12:15:15;;;;;;;;;;;21.50;52.80;;;;;;4974733;28;19910;-76
2023/03/26 12:17:41;;;;;;;;;;;21.40;52.50;;;;;;5048285;28;19916;-76
2023/03/26 12:20:34;;;;;;;;;;;21.40;52.80;;;;;;5072413;28;20044;-76
2023/03/26 12:23:01;;;;;;;;;;;21.40;52.20;;;;;;4990638;28;19924;-76
2023/03/26 12:25:33;;;;;;;;;;;21.40;52.80;;;;;;4990761;28;19921;-76
2023/03/26 12:28:16;;;;;;;;;;;21.40;52.80;;;;;;4990533;28;19945;-76
2023/03/26 12:30:52;;;;;;;;;;;21.30;52.60;;;;;;4990255;28;20495;-76
2023/03/26 12:33:24;;;;;;;;;;;21.30;52.90;;;;;;4990475;28;20032;-76
2023/03/26 12:35:50;;;;;;;;;;;21.40;52.90;;;;;;4990612;28;19914;-76
2023/03/26 12:38:39;;;;;;;;;;;21.40;53.00;;;;;;4990348;28;19910;-76
2023/03/26 12:41:09;;;;;;;;;;;21.40;52.90;;;;;;4974182;28;19916;-76
2023/03/26 12:43:44;;;;;;;;;;;21.40;52.90;;;;;;4990392;28;20024;-76
2023/03/26 12:46:25;;;;;;;;;;;21.30;52.90;;;;;;4990396;28;20357;-76
2023/03/26 12:48:52;;;;;;;;;;;21.40;53.00;;;;;;4990436;28;19917;-76
2023/03/26 12:51:27;;;;;;;;;;;21.40;53.00;;;;;;4990315;28;20370;-76
2023/03/26 12:54:02;;;;;;;;;;;21.50;52.80;;;;;;4990235;28;19917;-76
2023/03/26 12:56:37;;;;;;;;;;;21.50;52.40;;;;;;4990161;28;19913;-76
2023/03/26 12:59:17;;;;;;;;;;;21.50;52.90;;;;;;5005591;28;19979;-76
2023/03/26 13:01:52;;;;;;;;;;;21.50;52.70;;;;;;5071811;28;19912;-76
2023/03/26 13:04:17;;;;;;;;;;;21.40;50.50;;;;;;5070691;28;20014;-76
2023/03/26 13:06:49;;;;;;;;;;;21.50;51.20;;;;;;5071643;28;20447;-76
2023/03/26 13:09:18;;;;;;;;;;;21.30;52.10;;;;;;5071615;28;20000;-76
2023/03/26 13:11:49;;;;;;;;;;;21.30;51.40;;;;;;5068709;28;19947;-76
2023/03/26 13:14:17;;;;;;;;;;;21.30;51.60;;;;;;5051636;28;20367;-76
2023/03/26 13:16:53;;;;;;;;;;;21.10;52.00;;;;;;5051648;28;19908;-76
2023/03/26 13:19:25;;;;;;;;;;;21.20;52.70;;;;;;5033552;28;20030;-77
2023/03/26 13:21:51;;;;;;;;;;;21.10;51.60;;;;;;5051494;28;19909;-76
2023/03/26 13:24:20;;;;;;;;;;;21.20;53.20;;;;;;5051634;28;19924;-76
2023/03/26 13:26:46;;;;;;;;;;;21.10;53.40;;;;;;5051199;28;20374;-76
2023/03/26 13:29:16;;;;;;;;;;;21.10;53.50;;;;;;5051565;28;20000;-76
2023/03/26 13:31:43;;;;;;;;;;;21.10;53.50;;;;;;5051528;28;19944;-76
2023/03/26 13:34:10;;;;;;;;;;;21.00;53.00;;;;;;5033521;28;20384;-76
2023/03/26 13:36:38;;;;;;;;;;;20.90;53.70;;;;;;5051317;28;19926;-76
2023/03/26 13:39:06;;;;;;;;;;;20.90;53.20;;;;;;5051285;28;20423;-76
2023/03/26 13:41:50;;;;;;;;;;;21.00;53.70;;;;;;5051528;28;19959;-76
2023/03/26 13:44:35;;;;;;;;;;;20.90;53.90;;;;;;5055029;28;19920;-76
2023/03/26 13:47:03;;;;;;;;;;;20.90;54.00;;;;;;5055421;28;19913;-76
2023/03/26 13:49:36;;;;;;;;;;;20.90;54.00;;;;;;5055293;28;19924;-76
2023/03/26 13:52:08;;;;;;;;;;;20.90;54.10;;;;;;5055365;28;19909;-76
2023/03/26 13:54:49;;;;;;;;;;;21.00;54.20;;;;;;5055278;28;20280;-76
2023/03/26 13:57:28;;;;;;;;;;;21.00;54.10;;;;;;5055180;28;20368;-76
2023/03/26 13:59:59;;;;;;;;;;;21.10;54.10;;;;;;5055248;28;19999;-76
2023/03/26 14:02:32;;;;;;;;;;;20.90;54.00;;;;;;5037250;28;20380;-76
2023/03/26 14:05:18;;;;;;;;;;;21.00;54.00;;;;;;5055057;28;19908;-76
2023/03/26 14:07:51;;;;;;;;;;;21.00;54.10;;;;;;5054492;28;20369;-76
2023/03/26 14:10:26;;;;;;;;;;;21.00;54.00;;;;;;5019996;28;20030;-76
2023/03/26 14:12:55;;;;;;;;;;;21.00;54.00;;;;;;5054614;28;19932;-76
2023/03/26 14:15:23;;;;;;;;;;;21.00;53.90;;;;;;5074807;28;20393;-76
2023/03/26 14:17:54;;;;;;;;;;;21.10;54.00;;;;;;5074814;28;19912;-76
2023/03/26 14:20:23;;;;;;;;;;;20.90;54.00;;;;;;5074714;28;20357;-76
2023/03/26 14:22:49;;;;;;;;;;;20.90;54.10;;;;;;5074634;28;19959;-77
2023/03/26 14:25:21;;;;;;;;;;;21.00;54.10;;;;;;5074912;28;20312;-76
2023/03/26 14:27:53;;;;;;;;;;;20.90;54.10;;;;;;5055648;28;20232;-76
2023/03/26 14:30:29;;;;;;;;;;;21.00;54.10;;;;;;5074638;28;19912;-76
2023/03/26 14:32:57;;;;;;;;;;;20.90;54.10;;;;;;5074621;28;19908;-76
2023/03/26 14:35:40;;;;;;;;;;;20.80;54.00;;;;;;5074626;28;19909;-76
2023/03/26 14:38:31;;;;;;;;;;;20.90;54.10;;;;;;5074410;28;20368;-76
2023/03/26 14:41:16;;;;;;;;;;;20.90;54.20;;;;;;4992408;28;19993;-76
2023/03/26 14:43:42;;;;;;;;;;;20.80;54.20;;;;;;4992604;28;19976;-76
2023/03/26 14:46:13;;;;;;;;;;;20.80;54.10;;;;;;4992506;28;19914;-76
2023/03/26 14:49:03;;;;;;;;;;;20.90;54.20;;;;;;4992692;28;19945;-76
2023/03/26 14:51:35;;;;;;;;;;;21.00;54.00;;;;;;4992455;28;20008;-76
2023/03/26 14:54:10;;;;;;;;;;;20.90;54.10;;;;;;4991548;28;19913;-76
2023/03/26 14:56:36;;;;;;;;;;;20.90;54.00;;;;;;4992532;28;19916;-76
2023/03/26 14:59:02;;;;;;;;;;;21.00;53.80;;;;;;4992318;28;20578;-76